​ ​

Форум клана ЧПУшников

Информация о пользователе

Привет, Гость! Войдите или зарегистрируйтесь.


Вы здесь » Форум клана ЧПУшников » Лазерные станки


Лазерные станки

Тем 401 страница 480 из 572

Тема Ответов Просмотров Последнее сообщение
4 215 02-09-2016 22:34:42  uxtbl
1 334 26-08-2016 12:58:27  Orcansler
4 170 25-08-2016 16:48:13  *SvEtLaNKa*
7 498 19-08-2016 12:28:43  Юрий Анатольевич
14 1560 19-08-2016 09:59:24  cheeze
7 459 16-08-2016 14:15:08  Юрий Анатольевич
21 1073 06-08-2016 12:42:16  vasa29
21 1193 29-07-2016 11:28:19  ЫХ-000
3 240 25-07-2016 12:13:13  Kuz
1 276 20-07-2016 16:00:47  Maxim Korolev
6 780 19-07-2016 20:00:25  YuSTas
2 121 18-07-2016 10:25:53  byshaeva
81 2590 17-07-2016 11:06:33  Сергей Кравчик
2 269 09-07-2016 14:27:04  Killa312
11 707 07-07-2016 15:18:42  Hotory
25 741 27-06-2016 21:44:32  Salon-max
38 2123 27-06-2016 05:30:23  Юрецкий
14 452 26-06-2016 11:49:07  Quark
48 1316 24-06-2016 20:06:01  Иван1985
9 666 24-06-2016 19:54:50  Иван1985
16 707 24-06-2016 15:25:23  Sergey AA
2 127 24-06-2016 12:14:53  messer1988
8 502 22-06-2016 15:04:25  Sergey AA
8 1176 16-06-2016 22:36:09  megagad
425 Лазерное оборудование  Администратор  [ 1 2 3 ]
204 18340 12-06-2016 11:02:33  Andrey55
4 249 06-06-2016 09:19:33  Zmeei
24 1004 02-06-2016 16:29:32  Sofka
16 411 02-06-2016 09:43:13  ilcomp
3 155 31-05-2016 11:04:49  SmileCat
14 502 29-05-2016 10:38:37  Neudrums
19 1013 28-05-2016 00:03:48  Sborka
19 256 25-05-2016 12:15:46  Mikky
8 431 24-05-2016 15:31:24  sonr
21 2834 23-05-2016 23:42:46  Avel
435 Волнистый рез  angrydemon
4 260 23-05-2016 17:44:30  YuSTas
2 131 05-05-2016 11:02:05  Kuz
7 442 04-05-2016 01:16:19  snowman
10 363 28-04-2016 20:21:01  Kirian
1 158 28-04-2016 19:58:34  Kirian
37 1200 28-04-2016 14:14:04  neotex
3 703 27-04-2016 20:39:04  andrey_e
6 299 27-04-2016 16:16:09  denisej
443 Reci s2  Neudrums
35 924 26-04-2016 21:17:31  Элинка
5 502 25-04-2016 16:52:18  MPN
15 1554 23-04-2016 22:53:06  Sokrat
9 569 23-04-2016 17:45:11  Tab
35 1165 23-04-2016 13:05:00  Valera5609
18 1049 21-04-2016 12:07:58  f.laser
1 180 17-04-2016 23:10:04  megagad
450 Резка с углекислотой  Виктор Краски
23 819 17-04-2016 08:59:55  Flint2015
13 1909 15-04-2016 11:34:20  ImageLaser
11 313 11-04-2016 14:35:21  MaxMaster
13 407 09-04-2016 20:30:46  aldushin
5 292 06-04-2016 17:28:09  daguss
455 Закрыта Фото готовых работ выполненных на лазере  Администратор  [ 1 2 3  10 ]
991 97902 29-03-2016 17:50:18  sva-don
456 Закрыта Резко упала мощность  Neudrums
10 381 24-03-2016 00:59:57  Neudrums
5 462 22-03-2016 20:12:39  Дилик
458 Прошу помощи.  Назар
5 341 16-03-2016 09:51:09  Назар
8 255 14-03-2016 16:51:53  Расулыч
7 505 10-03-2016 20:36:59  chirik
5 794 07-03-2016 20:32:32  Flint2015
19 1781 04-03-2016 17:27:39  Airside
4 224 29-02-2016 22:43:44  nikson
5 188 27-02-2016 08:50:26  Flint2015
465 Тестирование размера реза  Виктор Краски
9 489 26-02-2016 16:55:55  daguss
466 кривая резка  Восходник
17 512 26-02-2016 00:06:30  semerochka
80 6389 22-02-2016 20:51:36  Kinetic
17 1029 22-02-2016 12:02:26  Kinetic
5 660 14-02-2016 15:24:59  gabber
7 535 14-02-2016 12:43:54  Zippo
12 399 12-02-2016 17:15:38  Yaroslavl
2 220 12-02-2016 10:23:44  Администратор
22 921 07-02-2016 15:27:40  Imobile
6 341 28-01-2016 17:09:21  StarPOM
25 1085 26-01-2016 15:23:58  Zippo
3 253 07-01-2016 00:45:42  okruk
4 252 05-01-2016 10:25:43  markaru
478 Нужна помощь специалистов!  Мастер на все руки
30 1413 02-01-2016 20:05:38  racon75
7 227 24-12-2015 12:08:34  lexus80
22 2968 21-12-2015 14:22:31  Kuz

Вы здесь » Форум клана ЧПУшников » Лазерные станки